createdAt,value
2023-12-12T00:01:07.170Z,8.37
2023-12-12T00:03:34.697Z,8.29
2023-12-12T00:06:02.606Z,8.10
2023-12-12T00:08:29.269Z,8.03
2023-12-12T00:10:58.557Z,7.80
2023-12-12T00:13:25.281Z,8.06
2023-12-12T00:15:52.045Z,8.26
2023-12-12T00:18:18.830Z,8.24
2023-12-12T00:20:46.082Z,8.38
2023-12-12T00:23:12.738Z,8.36
2023-12-12T00:25:39.341Z,8.27
2023-12-12T00:28:06.121Z,8.52
2023-12-12T00:30:32.835Z,8.44
2023-12-12T00:32:59.605Z,8.14
2023-12-12T00:35:26.357Z,7.85
2023-12-12T00:37:53.370Z,7.92
2023-12-12T00:40:20.546Z,8.25
2023-12-12T00:42:47.231Z,8.28
2023-12-12T00:45:14.009Z,8.14
2023-12-12T00:47:40.776Z,7.83
2023-12-12T00:50:08.325Z,7.95
2023-12-12T00:52:36.123Z,8.14
2023-12-12T00:55:03.506Z,8.35
2023-12-12T00:57:30.758Z,8.30
2023-12-12T00:59:57.590Z,7.98
2023-12-12T01:02:27.517Z,7.82
2023-12-12T01:04:54.811Z,7.96
2023-12-12T01:07:21.562Z,7.67
2023-12-12T01:09:48.566Z,7.90
2023-12-12T01:12:15.272Z,6.84
2023-12-12T01:14:41.991Z,7.47
2023-12-12T01:17:08.706Z,7.35
2023-12-12T01:19:35.520Z,7.70
2023-12-12T01:22:02.338Z,7.60
2023-12-12T01:24:31.381Z,7.75
2023-12-12T01:26:58.036Z,8.05
2023-12-12T01:29:24.679Z,7.91
2023-12-12T01:31:51.377Z,7.80
2023-12-12T01:34:18.214Z,7.59
2023-12-12T01:36:44.942Z,7.10
2023-12-12T01:39:11.632Z,7.14
2023-12-12T01:41:38.370Z,7.73
2023-12-12T01:44:05.123Z,8.03
2023-12-12T01:46:33.589Z,7.86
2023-12-12T01:49:00.545Z,8.08
2023-12-12T01:51:27.572Z,7.93
2023-12-12T01:53:54.544Z,7.06
2023-12-12T01:56:21.948Z,7.88
2023-12-12T01:58:52.400Z,7.00
2023-12-12T02:01:20.108Z,7.22
2023-12-12T02:03:47.303Z,7.73
2023-12-12T02:06:22.801Z,7.75
2023-12-12T02:08:53.514Z,7.81
2023-12-12T02:11:20.568Z,8.05
2023-12-12T02:13:47.312Z,7.90
2023-12-12T02:16:14.988Z,7.62
2023-12-12T02:18:41.986Z,7.72
2023-12-12T02:21:08.860Z,8.02
2023-12-12T02:23:35.718Z,7.64
2023-12-12T02:26:03.996Z,6.75
2023-12-12T02:28:30.774Z,7.03
2023-12-12T02:30:59.892Z,7.40
2023-12-12T02:33:26.744Z,7.28
2023-12-12T02:35:53.437Z,6.91
2023-12-12T02:38:20.168Z,7.27
2023-12-12T02:40:46.906Z,6.95
2023-12-12T02:43:13.853Z,6.89
2023-12-12T02:45:40.579Z,7.35
2023-12-12T02:48:07.332Z,6.99
2023-12-12T02:50:33.977Z,7.16
2023-12-12T02:53:00.704Z,7.10
2023-12-12T02:55:27.420Z,7.25
2023-12-12T02:57:54.163Z,7.51
2023-12-12T03:00:21.025Z,7.55
2023-12-12T03:02:47.968Z,7.48
2023-12-12T03:05:14.722Z,7.38
2023-12-12T03:07:41.546Z,7.74
2023-12-12T03:10:08.952Z,7.72
2023-12-12T03:12:35.779Z,7.67
2023-12-12T03:15:02.558Z,7.59
2023-12-12T03:17:29.374Z,7.30
2023-12-12T03:19:56.447Z,7.25
2023-12-12T03:22:23.072Z,7.49
2023-12-12T03:24:49.770Z,7.76
2023-12-12T03:27:16.460Z,7.95
2023-12-12T03:29:43.197Z,8.30
2023-12-12T03:32:09.886Z,8.35
2023-12-12T03:34:36.657Z,8.42
2023-12-12T03:37:03.406Z,8.46
2023-12-12T03:39:30.058Z,8.49
2023-12-12T03:41:56.688Z,8.56
2023-12-12T03:44:23.293Z,8.38
2023-12-12T03:46:49.924Z,8.57
2023-12-12T03:49:16.729Z,8.36
2023-12-12T03:51:43.829Z,8.06
2023-12-12T03:54:10.493Z,8.09
2023-12-12T03:56:37.109Z,8.25
2023-12-12T03:59:03.911Z,8.61
2023-12-12T04:01:30.719Z,8.63
2023-12-12T04:03:57.557Z,8.50
2023-12-12T04:06:24.506Z,8.35
2023-12-12T04:08:51.711Z,8.68
2023-12-12T04:11:18.372Z,8.72
2023-12-12T04:13:45.098Z,8.97
2023-12-12T04:16:11.908Z,9.04
2023-12-12T04:18:38.677Z,8.88
2023-12-12T04:21:06.744Z,7.54
2023-12-12T04:23:36.363Z,7.12
2023-12-12T04:26:04.167Z,6.28
2023-12-12T04:28:31.083Z,6.05
2023-12-12T04:30:57.829Z,4.83
2023-12-12T04:33:24.478Z,4.88
2023-12-12T04:35:51.167Z,6.15
2023-12-12T04:38:18.177Z,6.84
2023-12-12T04:40:44.803Z,5.54
2023-12-12T04:43:11.505Z,6.20
2023-12-12T04:45:38.172Z,7.03
2023-12-12T04:48:05.187Z,5.17
2023-12-12T04:50:32.054Z,6.27
2023-12-12T04:52:58.761Z,6.86
2023-12-12T04:55:25.468Z,6.70
2023-12-12T04:57:52.270Z,5.94
2023-12-12T05:00:19.752Z,6.51
2023-12-12T05:02:47.122Z,5.98
2023-12-12T05:05:14.014Z,4.58
2023-12-12T05:07:40.890Z,5.93
2023-12-12T05:10:08.368Z,6.75
2023-12-12T05:12:36.089Z,6.31
2023-12-12T05:15:03.619Z,6.78
2023-12-12T05:17:30.854Z,7.04
2023-12-12T05:20:00.468Z,6.87
2023-12-12T05:22:27.520Z,7.44
2023-12-12T05:24:54.252Z,7.57
2023-12-12T05:27:21.931Z,7.75
2023-12-12T05:29:48.753Z,7.74
2023-12-12T05:32:15.844Z,7.59
2023-12-12T05:34:42.739Z,7.88
2023-12-12T05:37:09.563Z,7.95
2023-12-12T05:39:36.468Z,8.11
2023-12-12T05:42:04.224Z,7.95
2023-12-12T05:44:33.152Z,8.05
2023-12-12T05:47:00.231Z,7.51
2023-12-12T05:49:27.186Z,7.95
2023-12-12T05:51:54.136Z,7.91
2023-12-12T05:54:23.940Z,7.78
2023-12-12T05:56:52.694Z,7.15
2023-12-12T05:59:19.381Z,7.03
2023-12-12T06:01:46.174Z,7.70
2023-12-12T06:04:16.038Z,7.74
2023-12-12T06:06:44.554Z,7.96
2023-12-12T06:09:12.901Z,7.87
2023-12-12T06:11:40.420Z,8.08
2023-12-12T06:14:07.471Z,7.84
2023-12-12T06:16:35.666Z,8.11
2023-12-12T06:19:06.271Z,8.16
2023-12-12T06:21:34.291Z,8.13
2023-12-12T06:24:03.435Z,7.65
2023-12-12T06:26:31.095Z,8.08
2023-12-12T06:28:57.876Z,8.21
2023-12-12T06:31:24.981Z,8.15
2023-12-12T06:33:53.307Z,7.84
2023-12-12T06:36:20.289Z,8.41
2023-12-12T06:38:47.101Z,8.30
2023-12-12T06:41:13.739Z,8.54
2023-12-12T06:43:41.127Z,8.57
2023-12-12T06:46:09.288Z,8.26
2023-12-12T06:48:38.344Z,7.31
2023-12-12T06:51:06.173Z,7.83
2023-12-12T06:53:32.972Z,8.16
2023-12-12T06:55:59.611Z,7.48
2023-12-12T06:58:26.329Z,8.07
2023-12-12T07:00:53.273Z,7.56
2023-12-12T07:03:20.241Z,7.54
2023-12-12T07:05:47.097Z,6.72
2023-12-12T07:08:13.840Z,7.09
2023-12-12T07:10:41.541Z,7.89
2023-12-12T07:15:52.542Z,8.08
2023-12-12T07:18:19.352Z,7.78
2023-12-12T07:20:46.153Z,8.53
2023-12-12T07:23:16.013Z,8.72
2023-12-12T07:25:44.381Z,8.45
2023-12-12T07:28:11.353Z,8.63
2023-12-12T07:30:38.197Z,8.29
2023-12-12T07:33:05.152Z,8.72
2023-12-12T07:35:31.940Z,9.02
2023-12-12T07:37:59.201Z,9.02
2023-12-12T07:40:25.989Z,9.08
2023-12-12T07:42:52.826Z,8.84
2023-12-12T07:45:19.751Z,9.28
2023-12-12T07:47:47.015Z,9.06
2023-12-12T07:50:14.060Z,8.93
2023-12-12T07:52:41.126Z,8.97
2023-12-12T07:55:08.133Z,8.69
2023-12-12T07:57:35.421Z,9.08
2023-12-12T08:00:02.351Z,9.47
2023-12-12T08:02:29.868Z,9.64
2023-12-12T08:04:56.508Z,10.04
2023-12-12T08:07:24.261Z,9.94
2023-12-12T08:09:51.130Z,10.08
2023-12-12T08:12:18.269Z,10.53
2023-12-12T08:14:47.445Z,10.87
2023-12-12T08:17:15.726Z,10.79
2023-12-12T08:19:43.382Z,10.30
2023-12-12T08:22:10.223Z,10.31
2023-12-12T08:24:36.940Z,10.61
2023-12-12T08:27:03.681Z,10.66
2023-12-12T08:29:32.229Z,10.80
2023-12-12T08:31:59.432Z,11.13
2023-12-12T08:34:26.506Z,10.91
2023-12-12T08:36:53.259Z,10.82
2023-12-12T08:39:20.236Z,10.93
2023-12-12T08:41:46.953Z,11.34
2023-12-12T08:44:13.644Z,10.93
2023-12-12T08:46:45.010Z,10.91
2023-12-12T08:49:12.105Z,10.62
2023-12-12T08:51:40.544Z,10.51
2023-12-12T08:54:07.543Z,10.52
2023-12-12T08:56:34.368Z,10.45
2023-12-12T08:59:01.109Z,10.43
2023-12-12T09:01:28.114Z,10.68
2023-12-12T09:03:55.387Z,11.09
2023-12-12T09:06:22.299Z,11.35
2023-12-12T09:08:49.222Z,11.61
2023-12-12T09:11:16.248Z,11.60
2023-12-12T09:13:44.507Z,11.42
2023-12-12T09:16:11.590Z,11.09
2023-12-12T09:18:39.216Z,11.44
2023-12-12T09:21:07.842Z,10.90
2023-12-12T09:23:34.847Z,11.27
2023-12-12T09:26:02.417Z,11.67
2023-12-12T09:28:29.103Z,11.19
2023-12-12T09:30:55.924Z,10.93
2023-12-12T09:33:23.079Z,11.01
2023-12-12T09:35:51.285Z,10.38
2023-12-12T09:38:18.158Z,10.64
2023-12-12T09:40:45.182Z,11.04
2023-12-12T09:43:13.809Z,11.36
2023-12-12T09:45:46.674Z,11.06
2023-12-12T09:48:17.210Z,11.06
2023-12-12T09:50:48.454Z,11.45
2023-12-12T09:53:15.683Z,11.38
2023-12-12T09:55:42.569Z,12.01
2023-12-12T09:58:09.325Z,11.53
2023-12-12T10:00:36.120Z,11.78
2023-12-12T10:03:06.672Z,11.82
2023-12-12T10:05:39.390Z,12.02
2023-12-12T10:08:14.038Z,11.56
2023-12-12T10:10:44.790Z,11.26
2023-12-12T10:13:12.405Z,11.62
2023-12-12T10:15:39.249Z,11.81
2023-12-12T10:18:06.534Z,11.89
2023-12-12T10:20:36.655Z,12.07
2023-12-12T10:23:06.470Z,11.85
2023-12-12T10:25:35.732Z,12.00
2023-12-12T10:28:03.409Z,12.16
2023-12-12T10:30:30.636Z,12.27
2023-12-12T10:32:57.618Z,12.05
2023-12-12T10:35:26.606Z,12.16
2023-12-12T10:37:54.456Z,12.45
2023-12-12T10:40:23.935Z,12.18
2023-12-12T10:42:52.288Z,12.28
2023-12-12T10:45:19.438Z,12.28
2023-12-12T10:47:51.940Z,12.68
2023-12-12T10:50:20.397Z,12.64
2023-12-12T10:52:49.926Z,12.04
2023-12-12T10:55:18.526Z,11.93
2023-12-12T10:57:48.340Z,12.23
2023-12-12T11:00:19.038Z,12.16
2023-12-12T11:02:47.843Z,12.12
2023-12-12T11:05:16.742Z,11.07
2023-12-12T11:07:49.644Z,11.08
2023-12-12T11:10:20.665Z,11.42
2023-12-12T11:12:52.877Z,11.81
2023-12-12T11:15:20.666Z,11.95
2023-12-12T11:17:48.905Z,11.52
2023-12-12T11:20:18.540Z,11.47
2023-12-12T11:22:53.313Z,12.08
2023-12-12T11:25:22.401Z,11.86
2023-12-12T11:27:58.669Z,12.30
2023-12-12T11:30:51.859Z,11.92
2023-12-12T11:33:18.637Z,11.43
2023-12-12T11:35:47.171Z,11.62
2023-12-12T11:38:31.287Z,11.58
2023-12-12T11:41:10.796Z,11.20
2023-12-12T11:43:37.659Z,11.47
2023-12-12T11:46:21.979Z,12.09
2023-12-12T11:48:49.122Z,12.54
2023-12-12T11:51:34.559Z,12.25
2023-12-12T11:54:08.043Z,12.61
2023-12-12T11:56:35.228Z,12.91
2023-12-12T11:59:02.327Z,13.11
2023-12-12T12:01:29.150Z,13.18
2023-12-12T12:03:55.920Z,13.00
2023-12-12T12:06:22.816Z,13.32
2023-12-12T12:08:51.628Z,13.09
2023-12-12T12:11:18.340Z,12.40
2023-12-12T12:13:45.093Z,12.58
2023-12-12T12:16:12.361Z,12.55
2023-12-12T12:18:39.943Z,12.25
2023-12-12T12:21:09.127Z,12.55
2023-12-12T12:23:40.111Z,12.71
2023-12-12T12:26:07.178Z,13.19
2023-12-12T12:28:35.184Z,12.77
2023-12-12T12:31:03.119Z,12.69
2023-12-12T12:33:34.013Z,12.49
2023-12-12T12:36:00.863Z,13.09
2023-12-12T12:38:35.264Z,12.98
2023-12-12T12:41:02.107Z,12.89
2023-12-12T12:43:28.862Z,12.75
2023-12-12T12:45:57.735Z,12.46
2023-12-12T12:48:28.653Z,12.83
2023-12-12T12:50:57.156Z,12.53
2023-12-12T12:53:23.855Z,12.57
2023-12-12T12:55:50.768Z,12.26
2023-12-12T12:58:17.671Z,12.08
2023-12-12T13:00:46.925Z,11.97
2023-12-12T13:03:14.693Z,12.30
2023-12-12T13:05:41.834Z,12.24
2023-12-12T13:08:08.722Z,12.27
2023-12-12T13:10:44.083Z,12.76
2023-12-12T13:13:17.370Z,12.45
2023-12-12T13:15:44.326Z,12.64
2023-12-12T13:18:11.203Z,12.34
2023-12-12T13:20:38.045Z,12.23
2023-12-12T13:23:04.767Z,12.26
2023-12-12T13:25:32.660Z,12.66
2023-12-12T13:27:59.708Z,12.53
2023-12-12T13:30:26.957Z,12.18
2023-12-12T13:32:54.001Z,12.34
2023-12-12T13:35:33.749Z,12.23
2023-12-12T13:38:04.866Z,12.22
2023-12-12T13:40:32.846Z,12.69
2023-12-12T13:42:59.861Z,12.22
2023-12-12T13:45:26.728Z,12.14
2023-12-12T13:47:54.123Z,12.23
2023-12-12T13:50:22.760Z,12.21
2023-12-12T13:52:49.573Z,12.53
2023-12-12T13:55:16.268Z,12.26
2023-12-12T13:57:42.989Z,12.59
2023-12-12T14:00:10.986Z,12.25
2023-12-12T14:02:38.624Z,12.28
2023-12-12T14:05:06.369Z,12.40
2023-12-12T14:07:34.107Z,12.45
2023-12-12T14:10:00.870Z,12.55
2023-12-12T14:12:27.683Z,12.22
2023-12-12T14:14:54.769Z,12.21
2023-12-12T14:17:21.817Z,12.41
2023-12-12T14:19:48.757Z,12.38
2023-12-12T14:22:15.604Z,12.42
2023-12-12T14:24:42.383Z,12.52
2023-12-12T14:27:09.182Z,12.56
2023-12-12T14:29:36.305Z,12.48
2023-12-12T14:32:03.067Z,12.45
2023-12-12T14:34:29.962Z,12.29
2023-12-12T14:36:56.749Z,12.44
2023-12-12T14:39:24.740Z,11.85
2023-12-12T14:41:51.346Z,11.95
2023-12-12T14:44:18.040Z,12.01
2023-12-12T14:46:44.791Z,12.24
2023-12-12T14:49:11.636Z,12.24
2023-12-12T14:51:38.448Z,12.30
2023-12-12T14:54:05.657Z,12.19
2023-12-12T14:56:33.559Z,12.07
2023-12-12T14:59:00.536Z,11.89
2023-12-12T15:01:27.885Z,11.93
2023-12-12T15:03:55.351Z,12.05
2023-12-12T15:06:23.182Z,11.72
2023-12-12T15:08:49.880Z,11.89
2023-12-12T15:11:16.577Z,11.98
2023-12-12T15:13:43.289Z,12.03
2023-12-12T15:16:10.866Z,12.03
2023-12-12T15:18:38.161Z,11.88
2023-12-12T15:21:06.076Z,12.15
2023-12-12T15:23:36.564Z,12.18
2023-12-12T15:26:04.504Z,12.20
2023-12-12T15:28:31.242Z,12.10
2023-12-12T15:30:59.524Z,11.49
2023-12-12T15:33:27.071Z,11.75
2023-12-12T15:35:54.044Z,11.23
2023-12-12T15:38:20.756Z,11.31
2023-12-12T15:40:47.706Z,11.58
2023-12-12T15:43:14.996Z,11.41
2023-12-12T15:45:42.207Z,11.14
2023-12-12T15:48:09.137Z,11.23
2023-12-12T15:50:37.214Z,11.51
2023-12-12T15:53:04.051Z,11.55
2023-12-12T15:55:31.217Z,11.48
2023-12-12T15:57:58.474Z,11.01
2023-12-12T16:00:25.827Z,11.13
2023-12-12T16:02:52.686Z,11.46
2023-12-12T16:05:20.684Z,11.22
2023-12-12T16:07:48.772Z,11.34
2023-12-12T16:10:16.613Z,11.31
2023-12-12T16:12:43.373Z,9.39
2023-12-12T16:15:10.239Z,9.42
2023-12-12T16:17:37.931Z,9.34
2023-12-12T16:20:06.661Z,10.32
2023-12-12T16:22:34.819Z,10.82
2023-12-12T16:25:01.882Z,11.04
2023-12-12T16:27:28.790Z,10.91
2023-12-12T16:29:55.578Z,11.25
2023-12-12T16:32:23.495Z,11.24
2023-12-12T16:34:52.847Z,11.06
2023-12-12T16:37:20.357Z,11.11
2023-12-12T16:39:47.102Z,11.19
2023-12-12T16:42:16.030Z,11.01
2023-12-12T16:44:43.290Z,11.23
2023-12-12T16:47:10.966Z,11.10
2023-12-12T16:49:37.961Z,10.47
2023-12-12T16:52:05.077Z,10.91
2023-12-12T16:54:34.831Z,10.95
2023-12-12T16:57:01.625Z,10.69
2023-12-12T20:31:21.292Z,9.37
2023-12-12T20:33:48.096Z,9.51
2023-12-12T20:36:17.704Z,9.69
2023-12-12T20:38:45.185Z,9.81
2023-12-12T20:41:12.538Z,9.90
2023-12-12T20:43:40.190Z,9.94
2023-12-12T20:46:08.849Z,9.96
2023-12-12T20:48:35.577Z,9.99
2023-12-12T20:51:03.416Z,10.04
2023-12-12T20:53:31.218Z,9.78
2023-12-12T20:55:58.249Z,9.86
2023-12-12T20:58:24.904Z,9.91
2023-12-12T21:00:51.590Z,9.75
2023-12-12T21:03:18.383Z,9.36
2023-12-12T21:05:45.065Z,9.54
2023-12-12T21:08:11.753Z,9.76
2023-12-12T21:10:40.338Z,9.75
2023-12-12T21:13:07.227Z,9.83
2023-12-12T21:15:34.008Z,9.76
2023-12-12T21:18:00.999Z,9.84
2023-12-12T21:20:27.849Z,9.69
2023-12-12T21:22:54.579Z,9.60
2023-12-12T21:25:21.295Z,9.63
2023-12-12T21:27:48.152Z,9.29
2023-12-12T21:30:15.092Z,8.71
2023-12-12T21:32:42.662Z,8.98
2023-12-12T21:35:10.286Z,9.30
2023-12-12T21:37:37.646Z,9.03
2023-12-12T21:40:06.502Z,9.03
2023-12-12T21:42:33.330Z,9.33
2023-12-12T21:44:59.988Z,9.40
2023-12-12T21:47:26.785Z,9.42
2023-12-12T21:49:53.654Z,9.42
2023-12-12T21:52:20.680Z,9.22
2023-12-12T21:54:47.681Z,9.07
2023-12-12T21:57:14.506Z,8.73
2023-12-12T21:59:41.148Z,8.95
2023-12-12T22:02:07.947Z,8.91
2023-12-12T22:04:34.706Z,8.67
2023-12-12T22:07:02.531Z,9.01
2023-12-12T22:09:29.303Z,9.17
2023-12-12T22:11:56.061Z,9.21
2023-12-12T22:14:22.973Z,8.78
2023-12-12T22:16:49.714Z,8.92
2023-12-12T22:19:16.524Z,8.77
2023-12-12T22:21:43.265Z,8.63
2023-12-12T22:24:09.980Z,8.70
2023-12-12T22:26:36.727Z,8.90
2023-12-12T22:29:04.042Z,9.00
2023-12-12T22:31:30.986Z,9.02
2023-12-12T22:33:57.870Z,9.03
2023-12-12T22:36:24.608Z,8.90
2023-12-12T22:38:51.380Z,8.17
2023-12-12T22:41:21.752Z,8.74
2023-12-12T22:43:49.014Z,8.59
2023-12-12T22:46:20.001Z,8.81
2023-12-12T22:48:47.328Z,8.52
2023-12-12T22:51:20.337Z,7.99
2023-12-12T22:53:47.104Z,8.28
2023-12-12T22:56:14.411Z,8.09
2023-12-12T22:58:42.158Z,8.49
2023-12-12T23:01:11.316Z,8.69
2023-12-12T23:03:38.245Z,8.67
2023-12-12T23:06:06.490Z,8.80
2023-12-12T23:08:36.602Z,8.79
2023-12-12T23:11:04.003Z,8.74
2023-12-12T23:13:30.747Z,8.85
2023-12-12T23:15:57.494Z,8.87
2023-12-12T23:18:24.374Z,8.87
2023-12-12T23:20:54.076Z,8.81
2023-12-12T23:23:23.241Z,8.91
2023-12-12T23:25:50.193Z,8.84
2023-12-12T23:28:17.314Z,8.87
2023-12-12T23:30:57.227Z,8.88
2023-12-12T23:33:31.971Z,8.70
2023-12-12T23:35:58.636Z,8.37
2023-12-12T23:38:25.217Z,8.52
2023-12-12T23:40:51.882Z,8.45
2023-12-12T23:43:18.661Z,8.69
2023-12-12T23:45:46.619Z,8.80
2023-12-12T23:48:13.434Z,8.75
2023-12-12T23:50:40.123Z,8.77
2023-12-12T23:53:07.012Z,8.58
2023-12-12T23:55:33.876Z,8.67
2023-12-12T23:58:00.795Z,8.80
